Latest Weather Observations for Perth

IDW60801

Issued at 6:02 pm WST Thursday 29 January 2015 (issued every 30 minutes, with the page automatically refreshed every 10 minutes)

About weather observations | Map of weather stations | Latest weather observations for WA | Other Formats
Station Details ID: 009225 Name: PERTH METRO Lat: -31.92 Lon: 115.87 Height: 24.9 m
Data from the previous 72 hours. | See also: Recent months at Perth
Date/Time
WST
Temp
°C
App
Temp
°C
Dew
Point
Rel
Hum
%
Delta-T
°C
Wind Press
QNH
hPa
Press
MSL
hPa
Rain
since 9 am
mm
Dir
 
Spd
km/h
Gust
km/h
Spd
kts
Gust
kts
29/06:00pm 30.2 30.0 16.6 44 8.5 SSW 13 26 7 14 1006.9 1006.8 13.4
29/05:30pm 29.8 29.1 17.3 47 7.9 SW 17 28 9 15 1006.8 1006.7 13.4
29/05:00pm 29.7 28.1 17.5 48 7.8 SSW 22 35 12 19 1006.6 1006.5 13.4
29/04:30pm 31.0 29.3 15.8 40 9.4 SW 19 30 10 16 1006.5 1006.4 13.4
29/04:00pm 31.0 29.1 16.6 42 9.1 SW 22 33 12 18 1006.7 1006.6 13.4
29/03:30pm 32.2 32.0 18.4 44 8.9 SW 17 26 9 14 1007.1 1007.0 13.4
29/03:00pm 33.6 33.6 17.3 37 10.5 SSW 13 20 7 11 1007.1 1007.0 13.4
29/02:30pm 33.5 32.2 15.9 34 11.1 SSE 17 28 9 15 1007.6 1007.5 13.4
29/02:00pm 32.7 32.6 16.9 38 10.1 SSE 13 20 7 11 1008.0 1007.9 13.4
29/01:30pm 30.8 31.4 18.5 47 7.9 S 13 19 7 10 1008.4 1008.3 13.4
29/01:00pm 27.7 29.9 20.5 65 4.7 S 9 17 5 9 1008.5 1008.4 13.4
29/12:56pm 27.0 30.4 22.0 74 3.4 SW 7 17 4 9 1008.4 1008.3 13.4
29/12:30pm 21.9 23.0 18.1 79 2.4 SE 9 17 5 9 1008.4 1008.3 11.6
29/12:25pm 22.9 22.6 16.4 67 4.0 ENE 13 32 7 17 1008.7 1008.6 9.8
29/12:00pm 27.9 30.2 19.4 60 5.5 S 6 17 3 9 1009.4 1009.3 0.4
29/11:30am 29.8 30.1 17.9 48 7.6 SSW 13 19 7 10 1009.4 1009.3 0.2
29/11:00am 28.9 29.7 17.4 49 7.3 SSW 9 15 5 8 1009.3 1009.2 0.2
29/10:30am 28.5 30.5 20.0 60 5.6 S 9 15 5 8 1009.4 1009.3 0.2
29/10:00am 28.2 30.4 19.1 57 5.9 W 6 7 3 4 1009.4 1009.3 0.2
29/09:30am 26.5 28.8 20.6 70 3.9 WSW 9 13 5 7 1009.5 1009.4 0.2
29/09:00am 23.9 27.3 22.0 89 1.3 SSW 7 11 4 6 1009.5 1009.4 5.2
29/08:30am 23.0 25.7 21.4 91 1.1 WSW 9 13 5 7 1009.2 1009.1 5.0
29/08:00am 23.2 26.2 21.3 89 1.3 SSW 7 11 4 6 1009.1 1009.0 1.8
29/07:30am 23.5 25.8 20.6 84 1.9 W 9 15 5 8 1009.2 1009.1 1.6
29/07:00am 23.8 25.8 19.9 79 2.5 WNW 9 19 5 10 1008.9 1008.8 1.6
29/06:30am 24.3 26.2 18.5 70 3.7 WNW 6 7 3 4 1008.3 1008.2 1.6
29/06:00am 25.4 25.0 14.2 50 6.7 W 9 13 5 7 1007.7 1007.6 1.6
29/05:30am 25.7 24.3 13.5 46 7.2 ENE 13 32 7 17 1006.5 1006.4 1.6
29/05:00am 24.2 22.8 14.6 55 5.7 ESE 15 35 8 19 1006.5 1006.4 1.6
29/04:30am 25.9 26.3 15.3 52 6.4 W 7 20 4 11 1008.2 1008.1 0.0
29/04:00am 25.9 26.6 15.6 53 6.3 ENE 6 11 3 6 1007.2 1007.1 0.0
29/03:30am 25.6 26.2 15.9 55 5.9 SSE 7 11 4 6 1007.3 1007.2 0.0
29/03:00am 24.7 25.5 17.2 63 4.7 SSW 9 13 5 7 1007.1 1007.0 0.0
29/02:30am 23.2 24.5 20.2 83 1.9 WSW 13 22 7 12 1007.7 1007.6 0.0
29/02:00am 23.6 26.2 20.5 83 2.0 W 7 11 4 6 1007.1 1007.0 0.0
29/01:30am 23.3 27.1 20.2 83 2.0 CALM 0 0 0 0 1007.1 1007.0 0.0
29/01:00am 23.5 27.3 20.2 82 2.1 CALM 0 0 0 0 1007.1 1007.0 0.0
29/12:30am 23.9 27.8 20.4 81 2.3 CALM 0 2 0 1 1007.0 1006.9 0.0
29/12:00am 24.9 28.5 20.6 77 2.8 W 2 7 1 4 1006.8 1006.7 0.0
 
Date/Time
WST
Temp
°C
App
Temp
°C
Dew
Point
Rel
Hum
%
Delta-T
°C
Wind Press
QNH
hPa
Press
MSL
hPa
Rain
since 9 am
mm
Dir
 
Spd
km/h
Gust
km/h
Spd
kts
Gust
kts
28/11:30pm 25.4 28.2 20.4 74 3.3 WSW 6 7 3 4 1006.9 1006.8 0.0
28/11:00pm 26.2 28.0 19.6 67 4.3 W 9 15 5 8 1006.6 1006.5 0.0
28/10:30pm 27.0 29.7 17.8 57 5.8 CALM 0 0 0 0 1006.6 1006.5 0.0
28/10:00pm 28.5 29.2 16.1 47 7.7 SSW 7 11 4 6 1006.5 1006.4 0.0
28/09:30pm 29.4 30.3 16.2 44 8.2 SW 6 9 3 5 1006.3 1006.2 0.0
28/09:00pm 29.3 30.0 16.1 44 8.2 SW 7 11 4 6 1006.6 1006.5 0.0
28/08:30pm 29.3 30.2 16.1 44 8.2 WSW 6 7 3 4 1006.6 1006.5 0.0
28/08:00pm 29.7 30.4 16.1 43 8.5 SW 7 11 4 6 1006.4 1006.3 0.0
28/07:30pm 30.4 31.0 15.3 40 9.3 WSW 6 9 3 5 1006.1 1006.0 0.0
28/07:00pm 31.3 31.3 15.3 38 9.9 WSW 9 15 5 8 1005.6 1005.5 0.0
28/06:30pm 31.5 30.8 15.5 38 9.9 SW 13 20 7 11 1005.4 1005.3 0.0
28/06:00pm 32.3 31.3 15.7 36 10.4 SW 15 24 8 13 1005.5 1005.4 0.0
28/05:30pm 32.7 31.9 16.1 37 10.4 SW 15 24 8 13 1005.0 1004.9 0.0
28/05:00pm 32.0 31.0 15.5 37 10.3 SW 15 26 8 14 1005.0 1004.9 0.0
28/04:30pm 33.0 32.3 15.5 35 10.9 SW 13 22 7 12 1005.2 1005.1 0.0
28/04:00pm 33.0 32.1 15.9 35 10.7 WSW 15 24 8 13 1005.0 1004.9 0.0
28/03:30pm 33.2 32.4 16.1 35 10.8 W 15 26 8 14 1005.0 1004.9 0.0
28/03:00pm 34.3 33.7 16.6 34 11.3 W 15 28 8 15 1005.3 1005.2 0.0
28/02:30pm 35.6 35.1 15.9 31 12.5 W 13 22 7 12 1005.5 1005.4 0.0
28/02:00pm 35.6 34.5 15.3 29 12.8 WSW 15 24 8 13 1005.7 1005.6 0.0
28/01:30pm 35.9 34.3 15.1 29 13.0 WSW 17 24 9 13 1005.9 1005.8 0.0
28/01:00pm 35.9 34.3 15.1 29 13.0 WSW 17 24 9 13 1006.2 1006.1 0.0
28/12:30pm 35.8 34.7 14.4 27 13.3 WSW 13 20 7 11 1006.5 1006.4 0.0
28/12:00pm 36.2 35.7 14.8 28 13.4 WSW 11 19 6 10 1006.8 1006.7 0.0
28/11:30am 35.1 34.4 15.4 30 12.3 WSW 13 24 7 13 1007.0 1006.9 0.0
28/11:00am 35.5 35.7 14.7 28 13.0 SSW 7 17 4 9 1007.4 1007.3 0.0
28/10:30am 35.5 36.6 14.7 28 12.9 SW 2 7 1 4 1007.6 1007.5 0.0
28/10:00am 33.6 33.6 14.1 30 12.0 SSW 7 13 4 7 1007.8 1007.7 0.0
28/09:30am 33.1 32.8 13.2 30 12.0 N 7 13 4 7 1008.0 1007.9 0.0
28/09:00am 31.7 30.8 12.5 31 11.4 W 9 15 5 8 1008.2 1008.1 0.0
28/08:30am 30.9 30.1 12.8 33 10.7 WNW 9 15 5 8 1008.1 1008.0 0.0
28/08:00am 29.8 28.4 10.9 31 10.9 WNW 9 17 5 9 1008.0 1007.9 0.0
28/07:30am 29.5 28.8 11.5 33 10.4 WSW 6 13 3 7 1007.6 1007.5 0.0
28/07:00am 27.6 27.0 11.6 37 9.2 ESE 6 9 3 5 1006.9 1006.8 0.0
28/06:30am 25.6 24.8 11.0 40 8.2 ESE 6 9 3 5 1006.6 1006.5 0.0
28/06:00am 25.1 24.4 10.2 39 8.3 E 4 9 2 5 1006.3 1006.2 0.0
28/05:30am 25.4 23.6 9.3 36 8.8 ENE 9 20 5 11 1005.7 1005.6 0.0
28/05:00am 25.3 24.1 9.6 37 8.6 ENE 6 13 3 7 1005.6 1005.5 0.0
28/04:30am 25.5 24.1 9.7 37 8.7 ENE 7 15 4 8 1005.1 1005.0 0.0
28/04:00am 26.1 24.4 9.9 36 9.0 E 9 20 5 11 1004.9 1004.8 0.0
28/03:30am 26.3 24.8 9.2 34 9.4 ENE 7 15 4 8 1004.7 1004.6 0.0
28/03:00am 27.7 24.8 8.1 29 10.7 E 13 22 7 12 1004.7 1004.6 0.0
28/02:30am 27.7 25.6 8.1 29 10.6 ENE 9 17 5 9 1004.8 1004.7 0.0
28/02:00am 27.6 25.7 7.5 28 10.8 E 7 17 4 9 1004.9 1004.8 0.0
28/01:30am 28.1 25.8 7.4 27 11.1 E 9 15 5 8 1004.8 1004.7 0.0
28/01:00am 26.4 24.8 8.8 33 9.6 E 7 13 4 7 1004.9 1004.8 0.0
28/12:30am 22.9 24.3 14.5 59 5.0 CALM 0 0 0 0 1005.1 1005.0 0.0
28/12:00am 23.5 24.8 14.2 56 5.5 CALM 0 0 0 0 1005.1 1005.0 0.0
 
Date/Time
WST
Temp
°C
App
Temp
°C
Dew
Point
Rel
Hum
%
Delta-T
°C
Wind Press
QNH
hPa
Press
MSL
hPa
Rain
since 9 am
mm
Dir
 
Spd
km/h
Gust
km/h
Spd
kts
Gust
kts
27/11:30pm 25.1 25.7 14.3 51 6.4 ESE 4 7 2 4 1005.3 1005.2 0.0
27/11:00pm 26.0 26.9 12.8 44 7.7 CALM 0 6 0 3 1005.5 1005.4 0.0
27/10:30pm 28.2 27.4 10.9 34 9.8 SE 6 11 3 6 1005.8 1005.7 0.0
27/10:00pm 28.8 27.4 10.9 33 10.2 SSE 9 13 5 7 1005.9 1005.8 0.0
27/09:30pm 29.7 27.5 10.8 31 10.8 SSE 13 17 7 9 1005.9 1005.8 0.0
27/09:00pm 30.3 27.7 10.8 30 11.2 S 15 24 8 13 1006.0 1005.9 0.0
27/08:30pm 30.5 28.4 11.0 30 11.2 S 13 20 7 11 1005.9 1005.8 0.0
27/08:00pm 31.2 29.6 11.6 30 11.5 S 11 20 6 11 1005.6 1005.5 0.0
27/07:30pm 31.6 30.0 11.4 29 11.8 S 11 20 6 11 1005.4 1005.3 0.0
27/07:00pm 32.0 29.9 11.2 28 12.1 S 13 22 7 12 1005.2 1005.1 0.0
27/06:30pm 32.3 30.8 12.0 29 12.0 S 11 20 6 11 1005.1 1005.0 0.0
27/06:00pm 33.5 31.1 11.4 26 13.0 SSW 15 24 8 13 1004.9 1004.8 0.0
27/05:30pm 34.1 31.7 11.3 25 13.4 SSW 15 24 8 13 1004.7 1004.6 0.0
27/05:00pm 34.2 31.4 11.4 25 13.5 SSW 17 32 9 17 1004.7 1004.6 0.0
27/04:30pm 34.9 31.5 11.3 24 13.9 SSW 20 32 11 17 1004.6 1004.5 0.0
27/04:00pm 35.2 32.1 11.6 24 14.0 SSW 19 32 10 17 1004.9 1004.8 0.0
27/03:30pm 36.8 34.1 11.6 22 15.0 SSW 17 28 9 15 1005.1 1005.0 0.0
27/03:00pm 37.3 34.3 10.6 20 15.8 SSW 17 26 9 14 1005.3 1005.2 0.0
27/02:30pm 39.1 37.9 9.6 17 17.3 W 6 15 3 8 1005.4 1005.3 0.0
27/02:00pm 38.2 35.9 8.9 17 17.0 SSE 11 17 6 9 1005.7 1005.6 0.0
27/01:30pm 37.8 35.8 8.6 17 16.7 SE 9 17 5 9 1006.1 1006.0 0.0
27/01:00pm 37.5 35.8 10.0 19 16.1 NE 9 17 5 9 1006.5 1006.4 0.0
27/12:30pm 37.1 35.1 8.8 18 16.2 SE 9 15 5 8 1006.8 1006.7 0.0
27/12:00pm 36.0 34.6 8.7 19 15.6 NE 6 15 3 8 1007.0 1006.9 0.0
27/11:30am 34.9 33.1 9.3 21 14.7 NE 9 22 5 12 1007.3 1007.2 0.0
27/11:00am 34.4 31.3 8.9 21 14.5 NE 15 22 8 12 1007.6 1007.5 0.0
27/10:30am 34.2 31.5 8.8 21 14.4 NE 13 24 7 13 1007.8 1007.7 0.0
27/10:00am 32.9 29.7 8.4 22 13.7 ENE 15 24 8 13 1007.9 1007.8 0.0
27/09:30am 31.5 27.8 7.9 23 13.0 NE 17 33 9 18 1008.1 1008.0 0.0
27/09:00am 30.2 27.5 9.1 27 11.8 ENE 13 28 7 15 1008.3 1008.2 0.0
27/08:30am 28.3 25.4 8.1 28 11.0 ENE 13 24 7 13 1008.5 1008.4 0.0
27/08:00am 27.2 25.7 10.4 35 9.5 E 9 19 5 10 1008.5 1008.4 0.0
27/07:30am 25.3 23.8 10.7 40 8.2 ESE 9 19 5 10 1008.5 1008.4 0.0
27/07:00am 23.7 22.0 10.0 42 7.5 ESE 9 19 5 10 1008.5 1008.4 0.0
27/06:30am 23.0 21.4 10.1 44 7.1 ESE 9 15 5 8 1008.4 1008.3 0.0
27/06:00am 21.9 20.6 10.1 47 6.4 ESE 7 13 4 7 1008.2 1008.1 0.0
27/05:30am 21.4 21.0 9.9 48 6.2 E 2 7 1 4 1008.1 1008.0 0.0
27/05:00am 22.1 20.6 10.6 48 6.3 E 9 15 5 8 1008.0 1007.9 0.0
27/04:30am 22.7 21.1 10.2 45 6.8 E 9 17 5 9 1007.7 1007.6 0.0
27/04:00am 23.2 21.1 9.9 43 7.3 E 11 22 6 12 1007.5 1007.4 0.0
27/03:30am 23.6 21.5 9.9 42 7.5 E 11 20 6 11 1007.4 1007.3 0.0
27/03:00am 24.0 22.2 9.6 40 7.9 E 9 15 5 8 1007.4 1007.3 0.0
27/02:30am 24.8 22.5 9.1 37 8.5 E 11 20 6 11 1007.3 1007.2 0.0
27/02:00am 25.3 22.9 8.7 35 9.0 E 11 19 6 10 1007.2 1007.1 0.0
27/01:30am 26.1 22.9 8.6 33 9.5 E 15 28 8 15 1007.2 1007.1 0.0
27/01:00am 26.8 24.1 7.3 29 10.4 E 11 32 6 17 1007.3 1007.2 0.0
27/12:30am 27.6 24.3 6.4 26 11.1 E 13 28 7 15 1007.7 1007.6 0.0
27/12:00am 28.0 24.5 5.6 24 11.7 E 13 24 7 13 1007.7 1007.6 0.0
 
Date/Time
WST
Temp
°C
App
Temp
°C
Dew
Point
Rel
Hum
%
Delta-T
°C
Wind Press
QNH
hPa
Press
MSL
hPa
Rain
since 9 am
mm
Dir
 
Spd
km/h
Gust
km/h
Spd
kts
Gust
kts
26/11:30pm 28.8 25.2 5.0 22 12.3 E 13 26 7 14 1007.5 1007.4 0.0
26/11:00pm 29.2 25.9 4.6 21 12.7 E 11 24 6 13 1007.7 1007.6 0.0
26/10:30pm 29.8 26.6 5.1 21 12.9 E 11 22 6 12 1007.7 1007.6 0.0
26/10:00pm 29.2 26.6 6.0 23 12.3 E 9 20 5 11 1007.8 1007.7 0.0
26/09:59pm 29.3 26.3 6.0 23 12.3 E 11 20 6 11 1007.8 1007.7 0.0
26/09:30pm 24.3 24.7 14.7 55 5.7 S 6 7 3 4 1007.9 1007.8 0.0
26/09:00pm 24.6 27.1 17.3 64 4.5 CALM 0 0 0 0 1008.0 1007.9 0.0
26/08:30pm 25.8 28.2 16.9 58 5.5 CALM 0 6 0 3 1008.0 1007.9 0.0
26/08:00pm 27.1 28.9 16.4 52 6.6 SSW 2 7 1 4 1007.9 1007.8 0.0
26/07:30pm 29.0 30.8 15.5 44 8.3 CALM 0 6 0 3 1007.9 1007.8 0.0
26/07:00pm 30.7 30.8 13.9 36 10.2 SSW 6 7 3 4 1007.7 1007.6 0.0
26/06:30pm 32.2 31.6 13.4 32 11.3 SSW 9 13 5 7 1007.5 1007.4 0.0

Other Formats:

Comma delimited format used in spreadsheet applications
http://www.bom.gov.au/fwo/IDW60801/IDW60801.94608.axf

JavaScript Object Notation format (JSON) in row-major order
http://www.bom.gov.au/fwo/IDW60801/IDW60801.94608.json